Time;durP1;ratioP1;P1;durP2;ratioP2;P2;SDS_P1;SDS_P2;PMS_P1;PMS_P2;Temp;Humidity;BMP_temperature;BMP_pressure;BME280_temperature;BME280_humidity;BME280_pressure;Samples;Min_cycle;Max_cycle;Signal;HPM_P1;HPM_P2
2021/11/26 00:01:56;;;;;;;22.00;6.20;;;;;;;;;;5064379;28;20026;-86
2021/11/26 00:04:21;;;;;;;19.70;6.03;;;;;;;;;;5064227;28;20100;-86
2021/11/26 00:06:46;;;;;;;20.57;6.27;;;;;;;;;;5030981;28;20029;-86
2021/11/26 00:09:12;;;;;;;24.33;6.43;;;;;;;;;;5064638;28;20425;-86
2021/11/26 00:11:37;;;;;;;23.70;5.97;;;;;;;;;;5064629;28;20025;-86
2021/11/26 00:14:26;;;;;;;15.07;5.10;;;;;;;;;;5032405;28;20151;-86
2021/11/26 00:16:54;;;;;;;21.67;6.07;;;;;;;;;;5032270;28;20499;-86
2021/11/26 00:19:20;;;;;;;20.33;5.95;;;;;;;;;;5018741;28;20466;-86
2021/11/26 00:21:45;;;;;;;20.27;5.07;;;;;;;;;;5064578;28;20032;-86
2021/11/26 00:24:13;;;;;;;21.23;5.53;;;;;;;;;;5064415;28;20453;-86
2021/11/26 00:26:38;;;;;;;21.37;5.93;;;;;;;;;;5032767;28;20445;-86
2021/11/26 00:29:03;;;;;;;17.30;5.40;;;;;;;;;;5065679;28;20028;-86
2021/11/26 00:31:28;;;;;;;18.20;5.60;;;;;;;;;;5042652;28;20088;-86
2021/11/26 00:33:54;;;;;;;18.60;4.87;;;;;;;;;;5064599;28;20056;-86
2021/11/26 00:36:19;;;;;;;14.37;4.80;;;;;;;;;;5031020;28;20029;-86
2021/11/26 00:38:44;;;;;;;19.77;4.87;;;;;;;;;;5063893;28;20017;-86
2021/11/26 00:41:09;;;;;;;17.50;4.57;;;;;;;;;;5064209;28;20025;-87
2021/11/26 00:43:34;;;;;;;17.40;4.07;;;;;;;;;;5032307;28;20021;-87
2021/11/26 00:46:00;;;;;;;10.80;4.07;;;;;;;;;;5067830;28;20021;-86
2021/11/26 00:48:25;;;;;;;15.37;4.47;;;;;;;;;;5067683;28;20079;-86
2021/11/26 00:50:51;;;;;;;16.07;3.73;;;;;;;;;;5067455;28;20021;-86
2021/11/26 00:53:16;;;;;;;18.23;3.97;;;;;;;;;;5067650;28;20033;-86
2021/11/26 00:55:41;;;;;;;12.00;3.97;;;;;;;;;;5067762;28;20029;-86
2021/11/26 00:58:06;;;;;;;17.13;3.83;;;;;;;;;;5067721;28;20072;-87
2021/11/26 01:00:32;;;;;;;15.47;3.67;;;;;;;;;;5066821;28;20075;-86
2021/11/26 01:02:58;;;;;;;12.10;3.57;;;;;;;;;;5067528;28;20067;-86
2021/11/26 01:05:23;;;;;;;9.50;2.97;;;;;;;;;;5035357;28;20017;-87
2021/11/26 01:07:48;;;;;;;9.90;3.03;;;;;;;;;;5035415;28;20109;-86
2021/11/26 01:10:16;;;;;;;11.70;2.90;;;;;;;;;;5034033;28;20056;-87
2021/11/26 01:12:42;;;;;;;11.93;3.00;;;;;;;;;;5034251;28;20052;-87
2021/11/26 01:15:08;;;;;;;10.40;2.77;;;;;;;;;;5067059;28;20056;-87
2021/11/26 01:17:33;;;;;;;16.50;3.27;;;;;;;;;;5067178;28;20040;-86
2021/11/26 01:19:58;;;;;;;14.97;3.23;;;;;;;;;;5067255;28;20108;-87
2021/11/26 01:22:24;;;;;;;14.27;3.00;;;;;;;;;;5035052;28;20013;-86
2021/11/26 01:24:49;;;;;;;14.50;3.67;;;;;;;;;;5067476;28;20100;-87
2021/11/26 01:27:14;;;;;;;9.93;2.90;;;;;;;;;;5066970;28;20017;-87
2021/11/26 01:29:40;;;;;;;13.13;3.00;;;;;;;;;;5067123;28;20029;-86
2021/11/26 01:32:05;;;;;;;10.63;3.00;;;;;;;;;;5067081;28;20021;-86
2021/11/26 01:34:31;;;;;;;7.27;2.27;;;;;;;;;;5066914;28;20022;-87
2021/11/26 01:36:56;;;;;;;8.37;2.57;;;;;;;;;;5067045;28;20393;-86
2021/11/26 01:39:22;;;;;;;11.93;3.07;;;;;;;;;;5066643;28;20029;-86
2021/11/26 01:41:47;;;;;;;7.73;2.40;;;;;;;;;;5066945;28;20009;-86
2021/11/26 01:44:12;;;;;;;11.43;2.70;;;;;;;;;;5066520;28;20435;-86
2021/11/26 01:46:41;;;;;;;10.20;3.10;;;;;;;;;;5040892;28;20023;-86
2021/11/26 01:49:07;;;;;;;13.47;2.67;;;;;;;;;;5033757;28;20030;-86
2021/11/26 01:51:32;;;;;;;7.43;2.33;;;;;;;;;;5065449;28;20033;-86
2021/11/26 01:53:57;;;;;;;9.17;3.03;;;;;;;;;;5065522;28;20474;-86
2021/11/26 01:56:24;;;;;;;11.87;2.73;;;;;;;;;;5064453;28;20041;-87
2021/11/26 01:58:50;;;;;;;10.90;2.63;;;;;;;;;;5064767;28;20108;-87
2021/11/26 02:01:15;;;;;;;12.27;2.70;;;;;;;;;;5064696;28;20437;-86
2021/11/26 02:03:41;;;;;;;9.33;2.33;;;;;;;;;;5064818;28;20009;-86
2021/11/26 02:06:06;;;;;;;8.60;2.10;;;;;;;;;;5064468;28;20026;-87
2021/11/26 02:08:31;;;;;;;7.77;2.40;;;;;;;;;;5065205;28;20505;-86
2021/11/26 02:10:56;;;;;;;7.83;2.60;;;;;;;;;;5033288;28;20465;-86
2021/11/26 02:13:21;;;;;;;8.67;2.57;;;;;;;;;;5064942;28;20025;-86
2021/11/26 02:15:47;;;;;;;8.90;2.60;;;;;;;;;;5064542;28;20033;-86
2021/11/26 02:18:13;;;;;;;11.70;3.03;;;;;;;;;;5066068;28;20036;-85
2021/11/26 02:20:39;;;;;;;9.17;2.73;;;;;;;;;;5066057;28;20024;-86
2021/11/26 02:23:05;;;;;;;7.60;3.13;;;;;;;;;;5066037;28;20029;-86
2021/11/26 02:25:30;;;;;;;6.80;3.10;;;;;;;;;;5066153;28;20024;-86
2021/11/26 02:27:58;;;;;;;10.03;3.70;;;;;;;;;;5033238;28;20021;-86
2021/11/26 02:30:23;;;;;;;12.63;2.97;;;;;;;;;;5065793;28;20033;-86
2021/11/26 02:32:56;;;;;;;7.70;3.00;;;;;;;;;;5065896;28;20366;-86
2021/11/26 02:35:22;;;;;;;11.00;3.20;;;;;;;;;;5065893;28;20056;-86
2021/11/26 02:37:48;;;;;;;8.57;2.93;;;;;;;;;;5033784;28;20052;-85
2021/11/26 02:40:14;;;;;;;15.87;2.90;;;;;;;;;;5065600;28;20770;-86
2021/11/26 02:42:40;;;;;;;9.43;2.80;;;;;;;;;;5065188;28;20108;-86
2021/11/26 02:45:06;;;;;;;17.17;2.80;;;;;;;;;;5065400;28;20116;-86
2021/11/26 02:47:32;;;;;;;11.90;2.90;;;;;;;;;;5065704;28;20087;-86
2021/11/26 02:49:57;;;;;;;12.70;2.90;;;;;;;;;;5065604;28;20025;-86
2021/11/26 02:52:22;;;;;;;11.53;3.57;;;;;;;;;;5065511;28;20033;-86
2021/11/26 02:54:50;;;;;;;12.53;2.80;;;;;;;;;;5065260;28;20037;-85
2021/11/26 02:57:15;;;;;;;7.10;2.10;;;;;;;;;;5033400;28;20025;-86
2021/11/26 02:59:40;;;;;;;8.80;2.73;;;;;;;;;;5065324;28;20164;-86
2021/11/26 03:02:05;;;;;;;13.37;2.80;;;;;;;;;;5063976;28;20022;-86
2021/11/26 03:04:31;;;;;;;7.37;1.80;;;;;;;;;;5064123;28;20530;-86
2021/11/26 03:07:04;;;;;;;5.77;1.70;;;;;;;;;;5063314;28;20543;-86
2021/11/26 03:09:29;;;;;;;6.77;2.20;;;;;;;;;;5063767;28;20028;-87
2021/11/26 03:11:54;;;;;;;12.53;2.37;;;;;;;;;;5063771;28;20021;-86
2021/11/26 03:14:19;;;;;;;10.67;2.20;;;;;;;;;;5022240;28;20025;-86
2021/11/26 03:16:45;;;;;;;7.73;2.20;;;;;;;;;;5063332;28;20071;-87
2021/11/26 03:19:10;;;;;;;8.00;2.00;;;;;;;;;;5063449;28;20087;-86
2021/11/26 03:21:35;;;;;;;11.47;2.03;;;;;;;;;;5063519;28;20014;-87
2021/11/26 03:24:00;;;;;;;7.53;1.77;;;;;;;;;;5063914;28;20021;-87
2021/11/26 03:26:25;;;;;;;4.97;1.70;;;;;;;;;;5064336;28;20504;-87
2021/11/26 03:28:51;;;;;;;6.67;1.77;;;;;;;;;;5031925;28;20453;-87
2021/11/26 03:31:16;;;;;;;5.97;1.40;;;;;;;;;;5031814;28;20029;-87
2021/11/26 03:33:41;;;;;;;8.13;1.33;;;;;;;;;;5065041;28;20009;-87
2021/11/26 03:36:06;;;;;;;5.90;1.30;;;;;;;;;;5064824;28;20018;-87
2021/11/26 03:38:31;;;;;;;6.47;1.20;;;;;;;;;;5065011;28;20029;-87
2021/11/26 03:40:57;;;;;;;9.77;1.67;;;;;;;;;;5064760;28;20496;-86
2021/11/26 03:43:22;;;;;;;9.37;2.00;;;;;;;;;;5064670;28;20017;-87
2021/11/26 03:45:47;;;;;;;10.40;1.57;;;;;;;;;;5031496;28;20101;-87
2021/11/26 03:48:12;;;;;;;6.93;1.47;;;;;;;;;;5064920;28;20017;-87
2021/11/26 03:50:38;;;;;;;7.30;1.83;;;;;;;;;;5064672;28;20018;-87
2021/11/26 03:53:03;;;;;;;8.47;2.00;;;;;;;;;;5064769;28;20543;-87
2021/11/26 03:55:29;;;;;;;12.13;2.00;;;;;;;;;;5064582;28;20028;-86
2021/11/26 03:57:54;;;;;;;4.93;1.53;;;;;;;;;;5032782;28;20028;-87
2021/11/26 04:00:20;;;;;;;6.87;2.10;;;;;;;;;;5064138;28;20469;-86
2021/11/26 04:02:45;;;;;;;9.63;1.90;;;;;;;;;;5064754;28;20022;-86
2021/11/26 04:05:11;;;;;;;5.33;2.03;;;;;;;;;;5064866;28;20017;-87
2021/11/26 04:07:36;;;;;;;10.07;2.23;;;;;;;;;;5064199;28;20048;-87
2021/11/26 04:10:02;;;;;;;10.63;2.47;;;;;;;;;;5041948;28;20493;-86
2021/11/26 04:12:28;;;;;;;11.17;2.93;;;;;;;;;;5064575;28;20029;-87
2021/11/26 04:14:54;;;;;;;13.30;2.87;;;;;;;;;;5064739;28;20021;-87
2021/11/26 04:17:21;;;;;;;11.70;3.43;;;;;;;;;;5064688;28;20029;-86
2021/11/26 04:19:46;;;;;;;10.17;3.80;;;;;;;;;;5061404;28;20013;-86
2021/11/26 04:22:11;;;;;;;12.17;4.03;;;;;;;;;;5068329;28;20026;-87
2021/11/26 04:24:36;;;;;;;13.67;4.40;;;;;;;;;;5068491;28;20553;-87
2021/11/26 04:27:02;;;;;;;12.50;4.20;;;;;;;;;;5068520;28;20029;-86
2021/11/26 04:29:27;;;;;;;11.63;4.17;;;;;;;;;;5067862;28;20021;-86
2021/11/26 04:31:52;;;;;;;13.33;4.67;;;;;;;;;;5035109;28;20024;-86
2021/11/26 04:34:18;;;;;;;15.77;3.97;;;;;;;;;;5065288;28;20026;-86
2021/11/26 04:36:43;;;;;;;14.53;4.30;;;;;;;;;;5067883;28;20018;-86
2021/11/26 04:39:08;;;;;;;15.40;4.40;;;;;;;;;;5036174;28;20048;-87
2021/11/26 04:41:33;;;;;;;12.07;4.30;;;;;;;;;;5068030;28;20009;-87
2021/11/26 04:43:59;;;;;;;14.87;4.53;;;;;;;;;;5067849;28;20078;-86
2021/11/26 04:46:24;;;;;;;14.90;4.97;;;;;;;;;;5067930;28;20018;-86
2021/11/26 04:48:49;;;;;;;10.33;4.10;;;;;;;;;;5034525;28;20020;-86
2021/11/26 04:51:14;;;;;;;12.93;4.67;;;;;;;;;;5034396;28;20021;-86
2021/11/26 04:53:39;;;;;;;14.53;5.00;;;;;;;;;;5067324;28;20028;-86
2021/11/26 04:56:05;;;;;;;15.07;4.87;;;;;;;;;;5067458;28;20499;-86
2021/11/26 04:58:35;;;;;;;11.73;4.47;;;;;;;;;;5067652;28;20465;-87
2021/11/26 05:01:00;;;;;;;24.13;5.50;;;;;;;;;;5067503;28;20055;-87
2021/11/26 05:03:25;;;;;;;10.70;4.33;;;;;;;;;;5035652;28;20484;-86
2021/11/26 05:05:50;;;;;;;16.07;5.53;;;;;;;;;;5067508;28;20024;-86
2021/11/26 05:08:19;;;;;;;11.53;5.27;;;;;;;;;;5066993;28;20017;-86
2021/11/26 05:10:51;;;;;;;14.10;5.13;;;;;;;;;;5067448;28;20079;-87
2021/11/26 05:13:16;;;;;;;18.02;5.32;;;;;;;;;;5067750;28;20072;-87
2021/11/26 05:15:41;;;;;;;13.63;5.00;;;;;;;;;;5067371;28;20493;-86
2021/11/26 05:18:07;;;;;;;11.77;4.47;;;;;;;;;;5056957;28;20033;-87
2021/11/26 05:20:32;;;;;;;17.87;4.87;;;;;;;;;;5067065;28;20027;-87
2021/11/26 05:22:58;;;;;;;13.90;5.03;;;;;;;;;;5067260;28;20029;-87
2021/11/26 05:25:25;;;;;;;13.13;4.80;;;;;;;;;;5067229;28;20067;-86
2021/11/26 05:27:50;;;;;;;14.00;4.27;;;;;;;;;;5067175;28;20063;-86
2021/11/26 05:30:15;;;;;;;12.20;3.77;;;;;;;;;;5034261;28;20052;-87
2021/11/26 05:32:41;;;;;;;12.10;4.50;;;;;;;;;;5066875;28;20491;-86
2021/11/26 05:35:07;;;;;;;14.20;4.50;;;;;;;;;;5067138;28;20055;-86
2021/11/26 05:37:32;;;;;;;14.97;4.20;;;;;;;;;;5067183;28;20401;-87
2021/11/26 05:39:58;;;;;;;15.70;4.83;;;;;;;;;;5066828;28;20025;-87
2021/11/26 05:42:23;;;;;;;19.67;4.70;;;;;;;;;;5067011;28;20055;-86
2021/11/26 05:44:48;;;;;;;15.13;4.30;;;;;;;;;;5033538;28;20385;-87
2021/11/26 05:47:13;;;;;;;14.13;3.90;;;;;;;;;;5066890;28;20029;-86
2021/11/26 05:49:38;;;;;;;15.37;3.77;;;;;;;;;;5066883;28;20061;-87
2021/11/26 05:52:04;;;;;;;18.23;5.23;;;;;;;;;;5070771;28;20033;-87
2021/11/26 05:54:29;;;;;;;14.30;5.00;;;;;;;;;;5066610;28;20076;-87
2021/11/26 05:56:54;;;;;;;24.37;4.83;;;;;;;;;;5066678;28;20022;-87
2021/11/26 05:59:19;;;;;;;11.73;3.60;;;;;;;;;;5034274;28;20461;-86
2021/11/26 06:01:45;;;;;;;16.53;3.70;;;;;;;;;;5066020;28;20025;-87
2021/11/26 06:04:10;;;;;;;10.50;3.23;;;;;;;;;;5052305;28;20026;-87
2021/11/26 06:06:35;;;;;;;16.57;4.30;;;;;;;;;;5034430;28;20064;-86
2021/11/26 06:09:00;;;;;;;16.33;4.23;;;;;;;;;;5066178;28;20079;-86
2021/11/26 06:11:26;;;;;;;15.10;3.53;;;;;;;;;;5066450;28;20067;-86
2021/11/26 06:13:51;;;;;;;12.87;3.73;;;;;;;;;;5065924;28;20454;-87
2021/11/26 06:16:16;;;;;;;16.83;3.83;;;;;;;;;;5034053;28;20024;-86
2021/11/26 06:18:41;;;;;;;19.67;5.07;;;;;;;;;;5066314;28;20026;-87
2021/11/26 06:21:06;;;;;;;20.73;3.90;;;;;;;;;;5063841;28;20033;-87
2021/11/26 06:23:32;;;;;;;15.13;4.07;;;;;;;;;;5066426;28;20021;-87
2021/11/26 06:25:57;;;;;;;16.37;4.20;;;;;;;;;;5033832;28;20032;-87
2021/11/26 06:28:22;;;;;;;21.90;4.20;;;;;;;;;;5034560;28;20014;-87
2021/11/26 06:30:47;;;;;;;23.70;4.50;;;;;;;;;;5065865;28;20389;-87
2021/11/26 06:33:12;;;;;;;8.27;3.37;;;;;;;;;;5065775;28;20711;-86
2021/11/26 06:35:38;;;;;;;18.73;4.23;;;;;;;;;;5065970;28;20397;-86
2021/11/26 06:38:03;;;;;;;14.17;3.83;;;;;;;;;;5032345;28;20032;-86
2021/11/26 06:40:28;;;;;;;14.90;3.93;;;;;;;;;;5032308;28;20420;-87
2021/11/26 06:42:54;;;;;;;12.67;3.70;;;;;;;;;;5033788;28;20010;-86
2021/11/26 06:45:19;;;;;;;21.30;4.93;;;;;;;;;;5065324;28;20735;-86
2021/11/26 06:47:46;;;;;;;14.93;3.93;;;;;;;;;;5064131;28;20370;-86
2021/11/26 06:50:13;;;;;;;14.23;3.53;;;;;;;;;;5064369;28;20021;-87
2021/11/26 06:52:39;;;;;;;14.47;4.17;;;;;;;;;;5032466;28;20083;-87
2021/11/26 06:55:05;;;;;;;17.27;4.37;;;;;;;;;;5063540;28;20018;-86
2021/11/26 06:57:31;;;;;;;18.47;4.10;;;;;;;;;;5032110;28;20009;-86
2021/11/26 06:59:56;;;;;;;15.83;4.60;;;;;;;;;;5063779;28;20378;-87
2021/11/26 07:02:21;;;;;;;19.60;4.47;;;;;;;;;;5062975;28;20484;-86
2021/11/26 07:04:48;;;;;;;20.53;5.17;;;;;;;;;;5064283;28;20021;-86
2021/11/26 07:07:13;;;;;;;21.50;6.27;;;;;;;;;;5031746;28;20766;-86
2021/11/26 07:09:38;;;;;;;25.87;5.30;;;;;;;;;;5065050;28;20108;-87
2021/11/26 07:12:09;;;;;;;19.43;4.97;;;;;;;;;;5032875;28;20036;-86
2021/11/26 07:14:34;;;;;;;21.93;4.73;;;;;;;;;;5065163;28;20029;-85
2021/11/26 07:16:59;;;;;;;18.23;4.57;;;;;;;;;;5065429;28;20529;-86
2021/11/26 07:19:24;;;;;;;18.63;5.07;;;;;;;;;;5064761;28;20026;-86
2021/11/26 07:21:50;;;;;;;19.27;4.43;;;;;;;;;;5065206;28;20013;-86
2021/11/26 07:24:15;;;;;;;23.90;4.70;;;;;;;;;;5065018;28;20021;-86
2021/11/26 07:26:40;;;;;;;23.57;4.70;;;;;;;;;;5065014;28;20018;-86
2021/11/26 07:29:05;;;;;;;21.43;5.93;;;;;;;;;;5064966;28;20044;-86
2021/11/26 07:31:31;;;;;;;9.50;3.47;;;;;;;;;;5030867;28;20100;-86
2021/11/26 07:33:56;;;;;;;17.97;5.40;;;;;;;;;;5064446;28;20017;-87
2021/11/26 07:36:21;;;;;;;16.97;5.30;;;;;;;;;;5064960;28;20029;-86
2021/11/26 07:38:46;;;;;;;19.73;4.67;;;;;;;;;;5064899;28;20108;-87
2021/11/26 07:41:12;;;;;;;26.43;6.40;;;;;;;;;;5032543;28;20029;-86
2021/11/26 07:43:37;;;;;;;23.37;5.87;;;;;;;;;;5031271;28;20024;-86
2021/11/26 07:46:02;;;;;;;22.17;5.53;;;;;;;;;;5064858;28;20416;-86
2021/11/26 07:48:28;;;;;;;21.87;5.33;;;;;;;;;;5064361;28;20501;-86
2021/11/26 07:50:55;;;;;;;15.23;5.90;;;;;;;;;;5032147;28;20068;-86
2021/11/26 07:53:21;;;;;;;19.63;5.23;;;;;;;;;;5032555;28;20018;-86
2021/11/26 07:55:46;;;;;;;17.30;5.53;;;;;;;;;;5067923;28;20385;-86
2021/11/26 07:58:12;;;;;;;17.03;5.50;;;;;;;;;;5069037;28;20056;-86
2021/11/26 08:00:37;;;;;;;21.77;6.03;;;;;;;;;;5067379;28;20014;-86
2021/11/26 08:03:03;;;;;;;25.20;5.40;;;;;;;;;;5068723;28;20029;-86
2021/11/26 08:05:30;;;;;;;17.67;5.50;;;;;;;;;;5033877;28;20674;-86
2021/11/26 08:07:55;;;;;;;20.10;5.90;;;;;;;;;;5068510;28;20075;-86
2021/11/26 08:10:20;;;;;;;19.37;5.50;;;;;;;;;;5068051;28;20025;-86
2021/11/26 08:12:45;;;;;;;16.83;5.77;;;;;;;;;;5035614;28;20469;-86
2021/11/26 08:15:12;;;;;;;17.07;5.20;;;;;;;;;;5036055;28;20064;-86
2021/11/26 08:17:38;;;;;;;18.33;5.07;;;;;;;;;;5035751;28;20476;-86
2021/11/26 08:20:04;;;;;;;20.13;6.10;;;;;;;;;;5035160;28;20061;-86
2021/11/26 08:22:29;;;;;;;18.53;6.20;;;;;;;;;;5068504;28;20052;-86
2021/11/26 08:24:54;;;;;;;20.23;5.60;;;;;;;;;;5036133;28;20056;-85
2021/11/26 08:27:20;;;;;;;18.20;5.23;;;;;;;;;;5068510;28;20028;-86
2021/11/26 08:29:45;;;;;;;17.30;5.10;;;;;;;;;;5067937;28;20032;-86
2021/11/26 08:32:10;;;;;;;20.53;5.37;;;;;;;;;;5067340;28;20053;-86
2021/11/26 08:34:35;;;;;;;19.23;5.80;;;;;;;;;;5036192;28;20097;-86
2021/11/26 08:37:01;;;;;;;23.20;6.10;;;;;;;;;;5068097;28;20017;-86
2021/11/26 08:39:26;;;;;;;23.07;5.60;;;;;;;;;;5067548;28;20025;-86
2021/11/26 08:41:52;;;;;;;19.27;5.07;;;;;;;;;;5034681;28;20024;-87
2021/11/26 08:44:17;;;;;;;25.70;5.50;;;;;;;;;;5036147;28;20013;-86
2021/11/26 08:46:42;;;;;;;24.93;5.10;;;;;;;;;;5067619;28;20083;-86
2021/11/26 08:49:08;;;;;;;14.43;4.57;;;;;;;;;;5036094;28;20076;-86
2021/11/26 08:51:34;;;;;;;16.67;4.70;;;;;;;;;;5067666;28;20013;-86
2021/11/26 08:54:01;;;;;;;10.37;3.80;;;;;;;;;;5035488;28;20025;-85
2021/11/26 08:56:26;;;;;;;19.50;4.60;;;;;;;;;;5055875;28;20022;-86
2021/11/26 08:58:52;;;;;;;21.10;4.67;;;;;;;;;;5065904;28;20104;-86
2021/11/26 09:01:17;;;;;;;21.10;6.33;;;;;;;;;;5067450;28;20028;-86
2021/11/26 09:03:46;;;;;;;20.93;4.80;;;;;;;;;;5067715;28;20045;-86
2021/11/26 09:06:14;;;;;;;18.80;4.60;;;;;;;;;;5067727;28;20033;-86
2021/11/26 09:08:40;;;;;;;16.40;4.10;;;;;;;;;;5067540;28;20477;-86
2021/11/26 09:11:05;;;;;;;20.70;5.37;;;;;;;;;;5035579;28;20018;-86
2021/11/26 09:13:30;;;;;;;18.27;5.20;;;;;;;;;;5066874;28;20025;-86
2021/11/26 09:15:55;;;;;;;21.10;4.70;;;;;;;;;;5034084;28;20101;-86
2021/11/26 09:18:22;;;;;;;17.57;4.37;;;;;;;;;;5067565;28;20044;-86
2021/11/26 09:20:50;;;;;;;19.77;5.03;;;;;;;;;;5067298;28;20071;-86
2021/11/26 09:23:16;;;;;;;20.37;4.73;;;;;;;;;;5067196;28;20067;-86
2021/11/26 09:25:41;;;;;;;16.63;3.93;;;;;;;;;;5067188;28;20018;-86
2021/11/26 09:28:06;;;;;;;16.73;4.20;;;;;;;;;;5035168;28;20100;-87
2021/11/26 09:30:32;;;;;;;23.47;4.77;;;;;;;;;;5067267;28;20029;-86
2021/11/26 09:32:58;;;;;;;16.23;4.40;;;;;;;;;;5066112;28;20021;-86
2021/11/26 09:35:25;;;;;;;16.47;3.70;;;;;;;;;;5067154;28;20412;-86
2021/11/26 09:37:50;;;;;;;18.93;3.40;;;;;;;;;;5067082;28;20477;-86
2021/11/26 09:40:16;;;;;;;21.23;4.97;;;;;;;;;;5066876;28;20028;-86
2021/11/26 09:42:44;;;;;;;14.63;4.53;;;;;;;;;;5033862;28;20017;-86
2021/11/26 09:45:12;;;;;;;15.53;3.50;;;;;;;;;;5066708;28;20473;-86
2021/11/26 09:47:38;;;;;;;12.57;3.90;;;;;;;;;;5066158;28;20029;-86
2021/11/26 09:50:03;;;;;;;15.13;4.10;;;;;;;;;;5034661;28;20022;-86
2021/11/26 09:52:28;;;;;;;17.43;4.03;;;;;;;;;;5066923;28;20022;-86
2021/11/26 09:54:54;;;;;;;19.47;4.60;;;;;;;;;;5066829;28;20017;-86
2021/11/26 09:57:19;;;;;;;17.07;4.30;;;;;;;;;;5066486;28;20021;-86
2021/11/26 09:59:45;;;;;;;11.67;3.40;;;;;;;;;;5034285;28;20377;-86
2021/11/26 10:02:15;;;;;;;15.53;3.67;;;;;;;;;;5034671;28;20030;-86
2021/11/26 10:04:41;;;;;;;11.20;3.83;;;;;;;;;;5066635;28;20427;-86
2021/11/26 10:07:06;;;;;;;17.60;4.27;;;;;;;;;;5032878;28;20029;-86
2021/11/26 10:09:33;;;;;;;12.50;3.10;;;;;;;;;;5042495;28;20025;-86
2021/11/26 10:12:02;;;;;;;15.67;3.80;;;;;;;;;;5034303;28;20491;-86
2021/11/26 10:14:29;;;;;;;11.83;3.47;;;;;;;;;;5066392;28;20022;-86
2021/11/26 10:16:57;;;;;;;13.13;3.87;;;;;;;;;;5065638;28;20031;-85
2021/11/26 10:19:33;;;;;;;10.87;3.07;;;;;;;;;;5049358;28;20017;-87
2021/11/26 10:21:59;;;;;;;14.17;3.50;;;;;;;;;;5066186;28;20492;-86
2021/11/26 10:24:24;;;;;;;13.73;3.20;;;;;;;;;;5065927;28;20014;-86
2021/11/26 10:26:51;;;;;;;16.27;3.40;;;;;;;;;;5065783;28;20037;-85
2021/11/26 10:29:26;;;;;;;14.60;3.47;;;;;;;;;;5032898;28;20104;-86
2021/11/26 10:32:01;;;;;;;10.30;3.13;;;;;;;;;;5033902;28;20025;-87
2021/11/26 10:34:26;;;;;;;12.07;2.93;;;;;;;;;;5033818;28;20021;-86
2021/11/26 10:36:51;;;;;;;7.47;2.67;;;;;;;;;;5065251;28;20075;-86
2021/11/26 10:39:21;;;;;;;9.27;2.60;;;;;;;;;;5033874;28;20458;-86
2021/11/26 10:41:52;;;;;;;11.07;3.13;;;;;;;;;;5065939;28;20019;-86
2021/11/26 10:44:21;;;;;;;7.67;2.67;;;;;;;;;;5065795;28;20025;-87
2021/11/26 10:47:00;;;;;;;11.83;2.93;;;;;;;;;;5065555;28;20125;-87
2021/11/26 10:50:04;;;;;;;7.07;2.33;;;;;;;;;;5065867;28;20021;-87
2021/11/26 10:57:38;;;;;;;12.77;2.60;;;;;;;;;;5032384;28;20035;-86
2021/11/26 11:00:06;;;;;;;13.37;2.93;;;;;;;;;;5065424;28;20091;-86
2021/11/26 11:02:35;;;;;;;7.17;2.07;;;;;;;;;;5032160;28;20429;-87
2021/11/26 11:05:00;;;;;;;10.13;2.77;;;;;;;;;;5033218;28;20022;-88
2021/11/26 11:07:36;;;;;;;13.87;2.70;;;;;;;;;;5065582;28;20017;-87
2021/11/26 11:10:01;;;;;;;12.23;2.80;;;;;;;;;;5065190;28;20022;-87
2021/11/26 11:12:32;;;;;;;8.77;2.30;;;;;;;;;;5036084;28;20029;-88
2021/11/26 11:14:58;;;;;;;13.97;2.80;;;;;;;;;;5032011;28;20159;-84
2021/11/26 11:17:27;;;;;;;8.17;2.33;;;;;;;;;;5064994;28;20021;-87
2021/11/26 11:19:55;;;;;;;10.27;3.20;;;;;;;;;;5032116;28;20029;-88
2021/11/26 11:22:20;;;;;;;8.27;2.20;;;;;;;;;;5031906;28;20021;-88
2021/11/26 11:24:46;;;;;;;11.90;2.57;;;;;;;;;;5064678;28;20018;-89
2021/11/26 11:27:11;;;;;;;14.03;2.20;;;;;;;;;;5031778;28;20428;-87
2021/11/26 11:29:36;;;;;;;11.13;2.77;;;;;;;;;;5033977;28;20025;-89
2021/11/26 11:32:01;;;;;;;10.23;2.97;;;;;;;;;;5032125;28;20216;-87
2021/11/26 11:34:29;;;;;;;13.57;3.43;;;;;;;;;;5058940;28;20014;-88
2021/11/26 11:36:56;;;;;;;8.97;2.93;;;;;;;;;;5064932;28;20018;-87
2021/11/26 11:39:22;;;;;;;7.90;2.33;;;;;;;;;;5065147;28;20112;-88
2021/11/26 11:41:47;;;;;;;8.33;2.53;;;;;;;;;;5065062;28;20037;-87
2021/11/26 11:44:29;;;;;;;11.47;3.67;;;;;;;;;;5046531;28;20026;-88
2021/11/26 11:46:55;;;;;;;11.93;2.85;;;;;;;;;;5064522;28;20469;-86
2021/11/26 11:49:23;;;;;;;7.73;3.10;;;;;;;;;;5031092;28;20032;-86
2021/11/26 11:51:49;;;;;;;12.33;4.03;;;;;;;;;;5032702;28;20435;-88
2021/11/26 11:54:14;;;;;;;8.37;2.97;;;;;;;;;;5065319;28;20030;-88
2021/11/26 11:56:41;;;;;;;9.87;3.23;;;;;;;;;;5065038;28;20370;-87
2021/11/26 11:59:06;;;;;;;11.03;3.23;;;;;;;;;;5064678;28;20032;-88
2021/11/26 12:01:38;;;;;;;10.13;3.40;;;;;;;;;;5031488;28;20021;-87
2021/11/26 12:04:17;;;;;;;8.07;3.10;;;;;;;;;;5032289;28;20022;-88
2021/11/26 12:06:43;;;;;;;8.90;3.10;;;;;;;;;;5064838;28;20037;-87
2021/11/26 12:09:29;;;;;;;9.40;3.30;;;;;;;;;;5064380;28;20026;-87
2021/11/26 12:12:04;;;;;;;11.90;3.03;;;;;;;;;;5030930;28;20033;-88
2021/11/26 12:14:30;;;;;;;11.87;2.90;;;;;;;;;;5058474;28;20408;-88
2021/11/26 12:17:14;;;;;;;8.97;3.40;;;;;;;;;;5062966;28;20025;-88
2021/11/26 12:19:40;;;;;;;9.60;3.30;;;;;;;;;;5064575;28;20029;-87
2021/11/26 12:22:09;;;;;;;7.87;3.63;;;;;;;;;;5030965;28;20029;-87
2021/11/26 12:24:36;;;;;;;6.33;3.27;;;;;;;;;;5060654;28;20025;-86
2021/11/26 12:27:01;;;;;;;12.83;3.77;;;;;;;;;;5059701;28;20039;-87
2021/11/26 12:29:35;;;;;;;9.97;3.43;;;;;;;;;;5030877;28;20033;-87
2021/11/26 12:32:05;;;;;;;7.67;3.03;;;;;;;;;;5053767;28;20040;-87
2021/11/26 12:34:37;;;;;;;14.17;5.53;;;;;;;;;;5064440;28;20053;-87
2021/11/26 12:37:02;;;;;;;9.43;1.98;;;;;;;;;;5063444;28;20042;-87
2021/11/26 12:39:31;;;;;;;6.17;3.17;;;;;;;;;;5030307;28;20423;-85
2021/11/26 12:41:58;;;;;;;6.50;2.70;;;;;;;;;;5066146;28;21868;-87
2021/11/26 12:44:25;;;;;;;7.23;2.73;;;;;;;;;;5068983;28;20108;-87
2021/11/26 12:46:54;;;;;;;4.93;2.20;;;;;;;;;;5068048;28;20016;-87
2021/11/26 12:51:51;;;;;;;7.63;2.93;;;;;;;;;;5036471;28;20096;-87
2021/11/26 12:54:21;;;;;;;5.37;1.57;;;;;;;;;;5034529;28;20372;-87
2021/11/26 12:56:46;;;;;;;6.93;2.70;;;;;;;;;;5034002;28;20070;-87
2021/11/26 12:59:11;;;;;;;7.83;2.60;;;;;;;;;;5033444;28;20029;-87
2021/11/26 13:01:37;;;;;;;6.87;2.80;;;;;;;;;;5038047;28;20024;-87
2021/11/26 13:04:02;;;;;;;5.97;2.20;;;;;;;;;;5034067;28;20021;-87
2021/11/26 13:06:31;;;;;;;6.90;3.13;;;;;;;;;;5034451;28;20029;-87
2021/11/26 13:09:00;;;;;;;7.50;3.00;;;;;;;;;;5063797;28;20081;-87
2021/11/26 13:11:25;;;;;;;9.63;3.50;;;;;;;;;;5034285;28;20033;-87
2021/11/26 13:13:59;;;;;;;11.17;3.10;;;;;;;;;;5034474;28;20022;-87
2021/11/26 13:16:25;;;;;;;6.30;2.97;;;;;;;;;;5067070;28;20025;-87
2021/11/26 13:18:50;;;;;;;7.87;2.53;;;;;;;;;;5034165;28;20568;-87
2021/11/26 13:21:15;;;;;;;8.70;3.00;;;;;;;;;;5067246;28;20116;-87
2021/11/26 13:23:41;;;;;;;9.10;2.93;;;;;;;;;;5067268;28;20022;-88
2021/11/26 13:26:08;;;;;;;7.03;3.23;;;;;;;;;;5066906;28;20025;-87
2021/11/26 13:28:34;;;;;;;6.70;2.13;;;;;;;;;;5030976;28;20381;-86
2021/11/26 13:31:07;;;;;;;6.03;2.33;;;;;;;;;;5032171;28;20036;-87
2021/11/26 13:33:33;;;;;;;6.37;2.60;;;;;;;;;;5063094;28;20026;-87
2021/11/26 13:36:01;;;;;;;5.53;2.40;;;;;;;;;;5067601;28;20034;-87
2021/11/26 13:38:31;;;;;;;2.57;1.33;;;;;;;;;;5033625;28;20021;-87
2021/11/26 13:40:58;;;;;;;5.77;2.97;;;;;;;;;;5033971;28;20025;-87
2021/11/26 13:43:34;;;;;;;3.00;1.43;;;;;;;;;;5062553;28;20131;-87
2021/11/26 13:46:00;;;;;;;9.57;3.40;;;;;;;;;;5067213;28;20021;-87
2021/11/26 13:48:26;;;;;;;6.57;2.67;;;;;;;;;;5047135;28;20047;-87
2021/11/26 13:50:51;;;;;;;8.87;3.50;;;;;;;;;;5033426;28;20056;-88
2021/11/26 13:53:17;;;;;;;4.47;1.83;;;;;;;;;;5065323;28;20075;-87
2021/11/26 13:55:42;;;;;;;4.93;2.47;;;;;;;;;;5066940;28;20025;-87
2021/11/26 13:58:09;;;;;;;5.57;2.30;;;;;;;;;;5066820;28;20035;-87
2021/11/26 14:00:49;;;;;;;8.50;2.73;;;;;;;;;;5064770;28;20021;-86
2021/11/26 14:03:15;;;;;;;8.63;2.50;;;;;;;;;;5032549;28;20025;-87
2021/11/26 14:05:40;;;;;;;6.33;2.67;;;;;;;;;;5066313;28;20500;-87
2021/11/26 14:08:10;;;;;;;6.57;2.37;;;;;;;;;;5066794;28;20025;-87
2021/11/26 14:10:50;;;;;;;6.00;2.60;;;;;;;;;;5064627;28;20434;-87
2021/11/26 14:13:16;;;;;;;5.63;2.77;;;;;;;;;;5033272;28;20028;-87
2021/11/26 14:15:41;;;;;;;6.77;3.23;;;;;;;;;;5066189;28;20029;-86
2021/11/26 14:18:14;;;;;;;4.30;2.20;;;;;;;;;;5065998;28;20079;-87
2021/11/26 14:20:40;;;;;;;7.50;2.87;;;;;;;;;;5066274;28;20359;-87
2021/11/26 14:23:07;;;;;;;4.73;2.50;;;;;;;;;;5066292;28;20096;-87
2021/11/26 14:25:32;;;;;;;6.97;2.27;;;;;;;;;;5034653;28;20041;-87
2021/11/26 14:27:59;;;;;;;4.30;2.50;;;;;;;;;;5066146;28;20442;-87
2021/11/26 14:30:26;;;;;;;6.30;3.37;;;;;;;;;;5066134;28;20017;-86
2021/11/26 14:33:02;;;;;;;5.80;3.70;;;;;;;;;;5032945;28;20121;-86
2021/11/26 14:35:30;;;;;;;8.27;4.10;;;;;;;;;;5033843;28;20052;-87
2021/11/26 14:37:59;;;;;;;6.93;2.63;;;;;;;;;;5032644;28;20428;-87